M I D A S
Marine Information and Data Acquisition System
Tripno 1084 of the Zeeleeuw from 2006-05-16 11:20:07 to 2006-05-16 13:52:37
Back to CruiseResearch ActivitiesStationsMapUnderway DataData graphs

EquipmentUnitsComments
TimeDGPSUTC
LatitudeDGPSDM.mWGS84
LongitudeDGPSDM.mWGS84
SpeedMeteo Stationm/sRelative wind speed
DirectionMeteo StationdegRelative wind direction
TemperatureMeteo Stationdeg CelciusAir temperature
PressureMeteo StationPaAtmospheric pressure
HumidityMeteo Station%Relative humidity
Missing or incorrect values are displayed as -999
Metereological data collected by the RV Zeeleeuw from 2006-05-16 07:39:04 to 2006-05-16 14:03:54
                                                                                    Next 1000 lines
Time Latitude Longitude Speed Direction Temperature Pressure Humidity
2006-05-16 07:39:14 51°13.601 2°56.1 -999 132 13.4 101560 87
2006-05-16 07:39:18 51°13.601 2°56.1 -999 140 13.3 101560 87
2006-05-16 07:39:24 51°13.601 2°56.099 -999 123 13.3 101560 87
2006-05-16 07:39:28 51°13.6 2°56.099 -999 127 13.3 101560 87
2006-05-16 07:39:34 51°13.6 2°56.1 -999 131 13.3 101560 87
2006-05-16 07:39:39 51°13.6 2°56.099 -999 131 13.3 101560 87
2006-05-16 07:39:44 51°13.6 2°56.1 -999 136 13.3 101560 87
2006-05-16 07:39:48 51°13.6 2°56.099 -999 134 13.3 101560 87
2006-05-16 07:39:54 51°13.6 2°56.099 -999 129 13.3 101560 87
2006-05-16 07:39:59 51°13.6 2°56.1 -999 135 13.3 101560 87
2006-05-16 07:40:04 51°13.6 2°56.1 -999 128 13.3 101560 87
2006-05-16 07:40:09 51°13.6 2°56.1 -999 133 13.3 101560 87
2006-05-16 07:40:14 51°13.601 2°56.1 -999 135 13.3 101560 87
2006-05-16 07:40:18 51°13.601 2°56.1 -999 132 13.3 101560 87
2006-05-16 07:40:24 51°13.601 2°56.1 -999 135 13.3 101560 87
2006-05-16 07:40:29 51°13.601 2°56.1 -999 128 13.3 101560 87
2006-05-16 07:40:34 51°13.6 2°56.1 -999 118 13.3 101560 87
2006-05-16 07:40:38 51°13.6 2°56.1 -999 122 13.3 101560 87
2006-05-16 07:40:44 51°13.6 2°56.1 -999 176 13.3 101560 87
2006-05-16 07:40:49 51°13.6 2°56.1 -999 43 13.3 101560 87
2006-05-16 07:40:54 51°13.6 2°56.099 -999 136 13.3 101560 87
2006-05-16 07:40:58 51°13.6 2°56.099 -999 141 13.3 101560 87
2006-05-16 07:41:04 51°13.6 2°56.1 -999 126 13.3 101560 87
2006-05-16 07:41:08 51°13.6 2°56.099 -999 128 13.3 101560 87
2006-05-16 07:41:14 51°13.6 2°56.1 -999 131 13.3 101560 87
2006-05-16 07:41:19 51°13.599 2°56.099 -999 133 13.3 101560 87
2006-05-16 07:41:24 51°13.599 2°56.099 -999 130 13.3 101560 87
2006-05-16 07:41:28 51°13.599 2°56.099 -999 119 13.3 101560 87
2006-05-16 07:41:34 51°13.6 2°56.099 -999 138 13.3 101560 87
2006-05-16 07:41:39 51°13.6 2°56.098 -999 145 13.3 101560 87
2006-05-16 07:41:44 51°13.6 2°56.097 -999 151 13.3 101560 87
2006-05-16 07:41:48 51°13.601 2°56.096 -999 156 13.4 101560 87
2006-05-16 07:41:54 51°13.601 2°56.093 -999 143 13.4 101560 87
2006-05-16 07:41:59 51°13.602 2°56.09 -999 150 13.4 101560 87
2006-05-16 07:42:04 51°13.602 2°56.087 -999 145 13.4 101560 87
2006-05-16 07:42:08 51°13.603 2°56.083 -999 155 13.4 101560 87
2006-05-16 07:42:14 51°13.603 2°56.078 -999 143 13.4 101560 87
2006-05-16 07:42:19 51°13.604 2°56.073 -999 125 13.4 101560 87
2006-05-16 07:42:24 51°13.605 2°56.068 -999 139 13.4 101560 87
2006-05-16 07:42:29 51°13.607 2°56.062 -999 106 13.4 101560 87
2006-05-16 07:42:34 51°13.608 2°56.056 -999 150 13.4 101560 87
2006-05-16 07:42:39 51°13.609 2°56.049 -999 142 13.4 101560 87
2006-05-16 07:42:44 51°13.611 2°56.043 -999 153 13.4 101560 87
2006-05-16 07:42:48 51°13.612 2°56.037 -999 164 13.4 101560 87
2006-05-16 07:42:54 51°13.614 2°56.028 -999 141 13.4 101560 87
2006-05-16 07:42:59 51°13.615 2°56.021 -999 143 13.4 101560 87
2006-05-16 07:43:04 51°13.616 2°56.013 -999 174 13.4 101560 87
2006-05-16 07:43:08 51°13.618 2°56.006 -999 181 13.4 101550 87
2006-05-16 07:43:14 51°13.62 2°55.995 -999 168 13.4 101550 87
2006-05-16 07:43:19 51°13.621 2°55.986 -999 183 13.4 101560 87
2006-05-16 07:43:24 51°13.623 2°55.977 -999 214 13.4 101560 87
2006-05-16 07:43:29 51°13.626 2°55.968 -999 205 13.3 101560 87
2006-05-16 07:43:34 51°13.629 2°55.958 -999 192 13.3 101560 87
2006-05-16 07:43:39 51°13.631 2°55.949 -999 196 13.4 101560 87
2006-05-16 07:43:44 51°13.634 2°55.939 -999 167 13.4 101560 87
2006-05-16 07:43:48 51°13.637 2°55.931 -999 180 13.4 101560 87
2006-05-16 07:43:54 51°13.641 2°55.919 -999 179 13.4 101560 87
2006-05-16 07:43:59 51°13.644 2°55.909 -999 168 13.4 101560 88
2006-05-16 07:44:04 51°13.648 2°55.899 -999 177 13.4 101560 88
2006-05-16 07:44:08 51°13.651 2°55.891 -999 178 13.5 101560 88
2006-05-16 07:44:14 51°13.656 2°55.88 -999 173 13.5 101560 88
2006-05-16 07:44:19 51°13.66 2°55.87 -999 170 13.5 101560 88
2006-05-16 07:44:24 51°13.664 2°55.86 -999 161 13.5 101560 88
2006-05-16 07:44:28 51°13.668 2°55.852 -999 179 13.5 101560 88
2006-05-16 07:44:34 51°13.672 2°55.841 -999 170 13.5 101560 88
2006-05-16 07:44:38 51°13.676 2°55.834 -999 182 13.5 101560 87
2006-05-16 07:44:44 51°13.68 2°55.824 -999 191 13.5 101560 87
2006-05-16 07:44:48 51°13.683 2°55.818 -999 183 13.5 101560 87
2006-05-16 07:44:52 51°13.686 2°55.811 -999 159 13.5 101560 87
2006-05-16 07:44:58 51°13.689 2°55.802 -999 163 13.5 101560 86
2006-05-16 07:45:03 51°13.692 2°55.795 -999 156 13.5 101560 86
2006-05-16 07:45:08 51°13.695 2°55.788 -999 164 13.5 101560 86
2006-05-16 07:45:13 51°13.698 2°55.781 -999 177 13.5 101560 86
2006-05-16 07:45:18 51°13.7 2°55.774 -999 163 13.5 101560 86
2006-05-16 07:45:23 51°13.703 2°55.768 -999 168 13.5 101560 86
2006-05-16 07:45:28 51°13.705 2°55.761 -999 179 13.5 101560 86
2006-05-16 07:45:34 51°13.707 2°55.755 -999 159 13.5 101560 86
2006-05-16 07:45:38 51°13.709 2°55.75 -999 157 13.5 101560 86
2006-05-16 07:45:43 51°13.71 2°55.746 -999 153 13.5 101560 86
2006-05-16 07:45:48 51°13.712 2°55.742 -999 157 13.5 101560 86
2006-05-16 07:45:54 51°13.713 2°55.739 -999 179 13.5 101560 86
2006-05-16 07:45:58 51°13.714 2°55.737 -999 172 13.5 101560 86
2006-05-16 07:46:03 51°13.714 2°55.737 -999 166 13.5 101560 86
2006-05-16 07:46:08 51°13.715 2°55.737 -999 193 13.4 101560 86
2006-05-16 07:46:14 51°13.716 2°55.737 -999 166 13.4 101560 86
2006-05-16 07:46:19 51°13.716 2°55.739 -999 171 13.5 101560 86
2006-05-16 07:46:23 51°13.717 2°55.739 -999 166 13.5 101560 86
2006-05-16 07:46:28 51°13.717 2°55.74 -999 175 13.4 101560 86
2006-05-16 07:46:34 51°13.718 2°55.74 -999 169 13.4 101560 86
2006-05-16 07:46:39 51°13.718 2°55.74 -999 227 13.4 101560 86
2006-05-16 07:46:44 51°13.718 2°55.739 -999 206 13.4 101560 86
2006-05-16 07:46:48 51°13.718 2°55.738 -999 206 13.4 101560 86
2006-05-16 07:46:54 51°13.718 2°55.735 -999 234 13.4 101560 86
2006-05-16 07:46:58 51°13.718 2°55.732 -999 226 13.4 101560 86
2006-05-16 07:47:04 51°13.717 2°55.728 -999 237 13.4 101560 86
2006-05-16 07:47:08 51°13.716 2°55.725 -999 228 13.4 101560 86
2006-05-16 07:47:14 51°13.716 2°55.721 -999 216 13.4 101560 86
2006-05-16 07:47:18 51°13.716 2°55.719 -999 214 13.4 101570 86
2006-05-16 07:47:24 51°13.715 2°55.715 -999 247 13.4 101570 86
2006-05-16 07:47:28 51°13.715 2°55.713 -999 238 13.4 101560 86
2006-05-16 07:47:34 51°13.714 2°55.711 -999 236 13.4 101560 86
2006-05-16 07:47:38 51°13.714 2°55.71 -999 229 13.4 101560 86
2006-05-16 07:47:44 51°13.715 2°55.709 -999 269 13.4 101560 86
2006-05-16 07:47:48 51°13.715 2°55.709 -999 257 13.4 101560 86
2006-05-16 07:47:54 51°13.716 2°55.71 -999 280 13.4 101560 86
2006-05-16 07:47:58 51°13.717 2°55.711 -999 283 13.4 101560 86
2006-05-16 07:48:04 51°13.719 2°55.712 -999 254 13.4 101560 86
2006-05-16 07:48:08 51°13.721 2°55.713 -999 265 13.4 101560 86
2006-05-16 07:48:13 51°13.723 2°55.714 -999 280 13.4 101560 86
2006-05-16 07:48:18 51°13.726 2°55.715 -999 267 13.5 101560 86
2006-05-16 07:48:24 51°13.729 2°55.716 -999 305 13.5 101560 86
2006-05-16 07:48:28 51°13.731 2°55.716 -999 311 13.5 101560 86
2006-05-16 07:48:33 51°13.734 2°55.715 -999 308 13.5 101560 86
2006-05-16 07:48:38 51°13.738 2°55.714 -999 316 13.5 101560 86
2006-05-16 07:48:44 51°13.742 2°55.712 -999 329 13.5 101560 86
2006-05-16 07:48:48 51°13.745 2°55.711 -999 337 13.5 101560 86
2006-05-16 07:48:53 51°13.749 2°55.709 -999 334 13.5 101560 86
2006-05-16 07:48:58 51°13.752 2°55.706 -999 233 13.5 101570 86
2006-05-16 07:49:03 51°13.756 2°55.703 -999 246 13.5 101570 86
2006-05-16 07:49:08 51°13.76 2°55.699 -999 313 13.5 101560 85
2006-05-16 07:49:13 51°13.764 2°55.695 -999 310 13.5 101560 85
2006-05-16 07:49:18 51°13.769 2°55.692 -999 43 13.5 101570 85
2006-05-16 07:49:24 51°13.774 2°55.687 -999 314 13.5 101570 85
2006-05-16 07:49:28 51°13.778 2°55.685 -999 297 13.5 101570 85
2006-05-16 07:49:33 51°13.783 2°55.681 -999 294 13.5 101570 85
2006-05-16 07:49:38 51°13.788 2°55.676 -999 302 13.5 101570 85
2006-05-16 07:49:43 51°13.793 2°55.672 -999 287 13.5 101570 85
2006-05-16 07:49:48 51°13.798 2°55.668 -999 288 13.5 101570 85
2006-05-16 07:49:54 51°13.804 2°55.662 -999 328 13.5 101570 85
2006-05-16 07:49:58 51°13.809 2°55.658 -999 332 13.5 101570 85
2006-05-16 07:50:04 51°13.816 2°55.651 -999 332 13.5 101570 85
2006-05-16 07:50:08 51°13.82 2°55.646 -999 335 13.5 101570 85
2006-05-16 07:50:13 51°13.827 2°55.64 -999 350 13.5 101570 85
2006-05-16 07:50:18 51°13.833 2°55.633 -999 342 13.5 101570 85
2006-05-16 07:50:23 51°13.841 2°55.626 -999 348 13.5 101570 85
2006-05-16 07:50:28 51°13.849 2°55.618 -999 3 13.5 101570 85
2006-05-16 07:50:33 51°13.857 2°55.611 -999 338 13.5 101570 85
2006-05-16 07:50:38 51°13.866 2°55.604 -999 326 13.5 101570 85
2006-05-16 07:50:43 51°13.875 2°55.596 -999 333 13.5 101570 85
2006-05-16 07:50:48 51°13.885 2°55.589 -999 328 13.5 101570 84
2006-05-16 07:50:52 51°13.892 2°55.583 -999 355 13.5 101570 84
2006-05-16 07:50:57 51°13.902 2°55.576 -999 343 13.5 101570 84
2006-05-16 07:51:03 51°13.914 2°55.567 -999 356 13.5 101570 84
2006-05-16 07:51:07 51°13.923 2°55.561 -999 14 13.5 101570 84
2006-05-16 07:51:12 51°13.933 2°55.554 -999 341 13.5 101570 84
2006-05-16 07:51:18 51°13.946 2°55.545 -999 334 13.5 101570 84
2006-05-16 07:51:22 51°13.955 2°55.539 -999 335 13.5 101570 84
2006-05-16 07:51:28 51°13.968 2°55.531 -999 332 13.5 101560 84
2006-05-16 07:51:33 51°13.979 2°55.524 -999 330 13.5 101560 84
2006-05-16 07:51:38 51°13.989 2°55.517 -999 327 13.5 101560 84
2006-05-16 07:51:44 51°14.003 2°55.509 -999 328 13.5 101560 84
2006-05-16 07:51:48 51°14.012 2°55.504 -999 334 13.5 101570 84
2006-05-16 07:51:53 51°14.023 2°55.497 -999 335 13.5 101570 84
2006-05-16 07:51:58 51°14.034 2°55.49 -999 341 13.5 101570 84
2006-05-16 07:52:02 51°14.043 2°55.484 -999 339 13.5 101570 84
2006-05-16 07:52:08 51°14.056 2°55.475 -999 324 13.5 101570 84
2006-05-16 07:52:13 51°14.067 2°55.467 -999 334 13.5 101570 84
2006-05-16 07:52:18 51°14.078 2°55.46 -999 341 13.5 101570 84
2006-05-16 07:52:23 51°14.088 2°55.452 -999 329 13.5 101570 84
2006-05-16 07:52:28 51°14.099 2°55.443 -999 329 13.5 101570 84
2006-05-16 07:52:33 51°14.11 2°55.435 -999 321 13.5 101570 84
2006-05-16 07:52:38 51°14.121 2°55.426 -999 317 13.5 101560 84
2006-05-16 07:52:43 51°14.131 2°55.418 -999 350 13.5 101560 84
2006-05-16 07:52:48 51°14.142 2°55.409 -999 350 13.5 101570 84
2006-05-16 07:52:52 51°14.15 2°55.402 -999 331 13.5 101570 84
2006-05-16 07:52:58 51°14.163 2°55.391 -999 342 13.5 101570 84
2006-05-16 07:53:03 51°14.173 2°55.382 -999 335 13.5 101570 84
2006-05-16 07:53:08 51°14.184 2°55.372 -999 340 13.5 101570 84
2006-05-16 07:53:14 51°14.196 2°55.361 -999 330 13.5 101570 84
2006-05-16 07:53:18 51°14.204 2°55.352 -999 327 13.5 101570 84
2006-05-16 07:53:22 51°14.212 2°55.344 -999 331 13.5 101570 84
2006-05-16 07:53:28 51°14.223 2°55.33 -999 330 13.5 101560 84
2006-05-16 07:53:33 51°14.232 2°55.318 -999 327 13.5 101560 84
2006-05-16 07:53:38 51°14.241 2°55.306 -999 332 13.6 101560 84
2006-05-16 07:53:44 51°14.252 2°55.291 -999 335 13.6 101560 84
2006-05-16 07:53:48 51°14.258 2°55.28 -999 337 13.6 101560 84
2006-05-16 07:53:52 51°14.264 2°55.269 -999 337 13.6 101560 84
2006-05-16 07:53:58 51°14.273 2°55.251 -999 335 13.6 101560 85
2006-05-16 07:54:03 51°14.28 2°55.236 -999 329 13.6 101560 85
2006-05-16 07:54:08 51°14.287 2°55.221 -999 343 13.6 101560 85
2006-05-16 07:54:12 51°14.292 2°55.209 -999 333 13.6 101560 85
2006-05-16 07:54:18 51°14.301 2°55.191 -999 334 13.5 101560 85
2006-05-16 07:54:23 51°14.307 2°55.175 -999 325 13.5 101560 85
2006-05-16 07:54:27 51°14.313 2°55.163 -999 335 13.5 101560 85
2006-05-16 07:54:32 51°14.32 2°55.148 -999 336 13.5 101560 85
2006-05-16 07:54:38 51°14.328 2°55.13 -999 340 13.5 101550 85
2006-05-16 07:54:43 51°14.336 2°55.114 -999 340 13.5 101550 85
2006-05-16 07:54:48 51°14.343 2°55.099 -999 334 13.5 101560 85
2006-05-16 07:54:53 51°14.35 2°55.083 -999 329 13.5 101560 85
2006-05-16 07:54:58 51°14.357 2°55.068 -999 329 13.5 101570 85
2006-05-16 07:55:03 51°14.365 2°55.053 -999 330 13.5 101570 85
2006-05-16 07:55:07 51°14.371 2°55.041 -999 328 13.5 101570 86
2006-05-16 07:55:13 51°14.38 2°55.024 -999 329 13.5 101570 86
2006-05-16 07:55:18 51°14.387 2°55.008 -999 326 13.5 101560 86
2006-05-16 07:55:23 51°14.394 2°54.993 -999 329 13.5 101560 86
2006-05-16 07:55:28 51°14.401 2°54.977 -999 324 13.4 101550 85
2006-05-16 07:55:33 51°14.408 2°54.96 -999 328 13.4 101550 85
2006-05-16 07:55:38 51°14.414 2°54.943 -999 334 13.4 101550 85
2006-05-16 07:55:43 51°14.42 2°54.924 -999 335 13.4 101550 85
2006-05-16 07:55:48 51°14.426 2°54.905 -999 333 13.4 101550 86
2006-05-16 07:55:53 51°14.43 2°54.884 -999 332 13.4 101550 86
2006-05-16 07:55:58 51°14.436 2°54.864 -999 333 13.4 101550 86
2006-05-16 07:56:03 51°14.441 2°54.842 -999 331 13.4 101550 86
2006-05-16 07:56:08 51°14.446 2°54.82 -999 333 13.4 101550 86
2006-05-16 07:56:12 51°14.451 2°54.802 -999 334 13.4 101550 86
2006-05-16 07:56:18 51°14.457 2°54.774 -999 334 13.4 101550 86
2006-05-16 07:56:23 51°14.462 2°54.751 -999 332 13.4 101550 86
2006-05-16 07:56:27 51°14.467 2°54.731 -999 340 13.4 101550 86
2006-05-16 07:56:33 51°14.473 2°54.702 -999 339 13.4 101550 86
2006-05-16 07:56:38 51°14.478 2°54.677 -999 338 13.3 101550 86
2006-05-16 07:56:43 51°14.484 2°54.652 -999 342 13.3 101550 86
2006-05-16 07:56:48 51°14.49 2°54.626 -999 340 13.3 101550 86
2006-05-16 07:56:53 51°14.495 2°54.6 -999 345 13.3 101550 86
2006-05-16 07:56:58 51°14.501 2°54.574 -999 343 13.3 101560 87
2006-05-16 07:57:03 51°14.506 2°54.548 -999 343 13.3 101560 87
2006-05-16 07:57:08 51°14.512 2°54.522 -999 343 13.3 101550 87
2006-05-16 07:57:13 51°14.518 2°54.496 -999 340 13.3 101550 87
2006-05-16 07:57:18 51°14.524 2°54.47 -999 342 13.3 101560 87
2006-05-16 07:57:23 51°14.53 2°54.443 -999 338 13.3 101560 87
2006-05-16 07:57:28 51°14.536 2°54.417 -999 339 13.3 101550 87
2006-05-16 07:57:32 51°14.541 2°54.396 -999 339 13.3 101550 87
2006-05-16 07:57:38 51°14.548 2°54.365 -999 336 13.3 101560 87
2006-05-16 07:57:42 51°14.554 2°54.344 -999 336 13.3 101560 87
2006-05-16 07:57:48 51°14.562 2°54.312 -999 340 13.2 101550 87
2006-05-16 07:57:53 51°14.569 2°54.286 -999 338 13.2 101550 87
2006-05-16 07:57:58 51°14.575 2°54.26 -999 340 13.2 101560 87
2006-05-16 07:58:03 51°14.581 2°54.233 -999 347 13.2 101560 87
2006-05-16 07:58:08 51°14.586 2°54.205 -999 342 13.2 101550 87
2006-05-16 07:58:12 51°14.589 2°54.182 -999 341 13.2 101550 87
2006-05-16 07:58:18 51°14.594 2°54.148 -999 342 13.2 101560 87
2006-05-16 07:58:23 51°14.598 2°54.119 -999 345 13.2 101560 87
2006-05-16 07:58:28 51°14.601 2°54.09 -999 347 13.2 101560 88
2006-05-16 07:58:32 51°14.603 2°54.066 -999 345 13.2 101560 88
2006-05-16 07:58:38 51°14.607 2°54.031 -999 346 13.2 101550 88
2006-05-16 07:58:43 51°14.61 2°54.002 -999 345 13.2 101550 88
2006-05-16 07:58:48 51°14.613 2°53.972 -999 344 13.2 101560 88
2006-05-16 07:58:53 51°14.615 2°53.942 -999 345 13.2 101560 88
2006-05-16 07:58:58 51°14.619 2°53.913 -999 345 13.2 101550 88
2006-05-16 07:59:03 51°14.621 2°53.883 -999 342 13.2 101550 88
2006-05-16 07:59:08 51°14.624 2°53.854 -999 343 13.2 101560 88
2006-05-16 07:59:12 51°14.626 2°53.83 -999 339 13.2 101560 88
2006-05-16 07:59:18 51°14.63 2°53.796 -999 344 13.1 101560 88
2006-05-16 07:59:23 51°14.634 2°53.767 -999 341 13.1 101560 88
2006-05-16 07:59:28 51°14.638 2°53.738 -999 340 13.1 101560 88
2006-05-16 07:59:33 51°14.643 2°53.71 -999 342 13.1 101560 88
2006-05-16 07:59:38 51°14.647 2°53.682 -999 339 13.1 101560 88
2006-05-16 07:59:43 51°14.652 2°53.654 -999 341 13.1 101560 88
2006-05-16 07:59:48 51°14.657 2°53.627 -999 342 13.1 101560 88
2006-05-16 07:59:52 51°14.66 2°53.605 -999 342 13.1 101560 88
2006-05-16 07:59:58 51°14.666 2°53.572 -999 341 13.1 101560 88
2006-05-16 08:00:03 51°14.671 2°53.544 -999 339 13.1 101560 88
2006-05-16 08:00:08 51°14.675 2°53.516 -999 341 13.1 101560 89
2006-05-16 08:00:12 51°14.678 2°53.493 -999 338 13.1 101560 89
2006-05-16 08:00:18 51°14.683 2°53.46 -999 337 13.1 101560 89
2006-05-16 08:00:23 51°14.686 2°53.431 -999 347 13.1 101560 89
2006-05-16 08:00:28 51°14.688 2°53.402 -999 348 13.1 101560 89
2006-05-16 08:00:32 51°14.689 2°53.379 -999 349 13.1 101560 89
2006-05-16 08:00:38 51°14.69 2°53.344 -999 349 13.1 101560 89
2006-05-16 08:00:43 51°14.689 2°53.314 -999 352 13.1 101560 89
2006-05-16 08:00:48 51°14.689 2°53.285 -999 351 13.1 101570 89
2006-05-16 08:00:52 51°14.688 2°53.262 -999 352 13.1 101570 89
2006-05-16 08:00:58 51°14.686 2°53.226 -999 352 13.1 101570 89
2006-05-16 08:01:03 51°14.685 2°53.197 -999 352 13.1 101570 89
2006-05-16 08:01:07 51°14.684 2°53.174 -999 353 13.1 101560 89
2006-05-16 08:01:13 51°14.682 2°53.139 -999 355 13.1 101560 89
2006-05-16 08:01:18 51°14.68 2°53.109 -999 355 13.1 101570 89
2006-05-16 08:01:24 51°14.678 2°53.074 -999 353 13.1 101570 89
2006-05-16 08:01:28 51°14.676 2°53.051 -999 351 13.1 101570 89
2006-05-16 08:01:33 51°14.675 2°53.021 -999 349 13.1 101570 89
2006-05-16 08:01:38 51°14.674 2°52.992 -999 349 13.1 101580 89
2006-05-16 08:01:43 51°14.673 2°52.962 -999 351 13.1 101580 89
2006-05-16 08:01:47 51°14.672 2°52.938 -999 352 13.1 101580 90
2006-05-16 08:01:53 51°14.673 2°52.903 -999 350 13.1 101580 90
2006-05-16 08:01:58 51°14.674 2°52.874 -999 349 13.1 101560 90
2006-05-16 08:02:02 51°14.675 2°52.85 -999 347 13.1 101560 90
2006-05-16 08:02:08 51°14.677 2°52.814 -999 348 13.1 101570 90
2006-05-16 08:02:12 51°14.679 2°52.791 -999 344 13.1 101570 90
2006-05-16 08:02:18 51°14.681 2°52.755 -999 343 13.1 101570 90
2006-05-16 08:02:22 51°14.683 2°52.732 -999 348 13.1 101570 90
2006-05-16 08:02:28 51°14.684 2°52.697 -999 342 13.1 101570 90
2006-05-16 08:02:32 51°14.684 2°52.673 -999 354 13.1 101570 90
2006-05-16 08:02:38 51°14.683 2°52.637 -999 354 13.1 101560 90
2006-05-16 08:02:43 51°14.682 2°52.607 -999 354 13.1 101560 90
2006-05-16 08:02:47 51°14.68 2°52.584 -999 356 13.1 101570 90
2006-05-16 08:02:53 51°14.677 2°52.548 -999 358 13.1 101570 90
2006-05-16 08:02:58 51°14.674 2°52.519 -999 356 13.1 101570 90
2006-05-16 08:03:03 51°14.671 2°52.489 -999 355 13.1 101570 90
2006-05-16 08:03:08 51°14.667 2°52.46 -999 358 13.1 101560 90
2006-05-16 08:03:13 51°14.664 2°52.43 -999 358 13.1 101560 90
2006-05-16 08:03:18 51°14.66 2°52.401 -999 360 13.1 101570 90
2006-05-16 08:03:23 51°14.656 2°52.372 -999 354 13.1 101570 90
2006-05-16 08:03:27 51°14.652 2°52.349 -999 357 13.1 101570 90
2006-05-16 08:03:33 51°14.647 2°52.314 -999 357 13.1 101570 90
2006-05-16 08:03:38 51°14.644 2°52.284 -999 358 13 101560 90
2006-05-16 08:03:43 51°14.64 2°52.255 -999 358 13 101560 90
2006-05-16 08:03:48 51°14.636 2°52.226 -999 360 13 101560 90
2006-05-16 08:03:53 51°14.633 2°52.196 -999 355 13 101560 90
2006-05-16 08:03:58 51°14.631 2°52.166 -999 356 13 101560 90
2006-05-16 08:04:03 51°14.629 2°52.137 -999 351 13 101560 90
2006-05-16 08:04:08 51°14.627 2°52.107 -999 353 13 101560 90
2006-05-16 08:04:13 51°14.626 2°52.077 -999 352 13 101560 90
2006-05-16 08:04:18 51°14.625 2°52.047 -999 352 13 101560 90
2006-05-16 08:04:23 51°14.624 2°52.018 -999 353 13 101560 90
2006-05-16 08:04:28 51°14.623 2°51.988 -999 352 13 101570 90
2006-05-16 08:04:33 51°14.622 2°51.958 -999 356 13 101570 90
2006-05-16 08:04:37 51°14.621 2°51.934 -999 354 13 101560 90
2006-05-16 08:04:43 51°14.618 2°51.898 -999 357 13 101560 90
2006-05-16 08:04:47 51°14.616 2°51.875 -999 357 13 101560 90
2006-05-16 08:04:52 51°14.612 2°51.845 -999 -999 13 101560 90
2006-05-16 08:04:58 51°14.607 2°51.81 -999 359 13 101560 90
2006-05-16 08:05:03 51°14.602 2°51.781 -999 354 13 101560 90
2006-05-16 08:05:08 51°14.597 2°51.752 -999 359 13 101570 90
2006-05-16 08:05:12 51°14.592 2°51.729 -999 3 13 101570 90
2006-05-16 08:05:18 51°14.585 2°51.695 -999 2 13 101570 91
2006-05-16 08:05:23 51°14.579 2°51.667 -999 6 13 101570 91
2006-05-16 08:05:28 51°14.572 2°51.639 -999 3 13 101570 91
2006-05-16 08:05:33 51°14.565 2°51.611 -999 3 13 101570 91
2006-05-16 08:05:38 51°14.558 2°51.583 -999 360 13 101560 91
2006-05-16 08:05:42 51°14.552 2°51.561 -999 358 13 101560 91
2006-05-16 08:05:48 51°14.544 2°51.527 -999 359 13 101560 91
2006-05-16 08:05:53 51°14.538 2°51.498 -999 357 13 101560 91
2006-05-16 08:05:58 51°14.532 2°51.469 -999 354 13 101560 91
2006-05-16 08:06:03 51°14.528 2°51.44 -999 358 13 101560 91
2006-05-16 08:06:08 51°14.523 2°51.411 -999 354 13 101560 90
2006-05-16 08:06:12 51°14.52 2°51.387 -999 354 13 101560 90
2006-05-16 08:06:18 51°14.516 2°51.352 -999 352 12.9 101570 90
2006-05-16 08:06:23 51°14.513 2°51.322 -999 353 12.9 101570 90
2006-05-16 08:06:28 51°14.509 2°51.293 -999 353 12.9 101560 90
2006-05-16 08:06:33 51°14.506 2°51.263 -999 353 12.9 101560 90
2006-05-16 08:06:38 51°14.503 2°51.233 -999 354 12.9 101560 90
2006-05-16 08:06:43 51°14.5 2°51.203 -999 355 12.9 101560 90
2006-05-16 08:06:48 51°14.497 2°51.173 -999 357 12.9 101560 91
2006-05-16 08:06:52 51°14.495 2°51.15 -999 358 12.9 101560 91
2006-05-16 08:06:58 51°14.491 2°51.114 -999 357 12.9 101560 91
2006-05-16 08:07:03 51°14.488 2°51.084 -999 360 12.9 101560 91
2006-05-16 08:07:08 51°14.484 2°51.054 -999 359 12.9 101560 91
2006-05-16 08:07:13 51°14.48 2°51.025 -999 359 12.9 101560 91
2006-05-16 08:07:18 51°14.475 2°50.995 -999 358 12.9 101560 91
2006-05-16 08:07:23 51°14.47 2°50.966 -999 356 12.9 101560 91
2006-05-16 08:07:28 51°14.465 2°50.937 -999 357 12.9 101570 91
2006-05-16 08:07:33 51°14.459 2°50.908 -999 358 12.9 101570 91
2006-05-16 08:07:38 51°14.454 2°50.879 -999 360 12.9 101570 91
2006-05-16 08:07:42 51°14.449 2°50.856 -999 1 12.9 101570 91
2006-05-16 08:07:48 51°14.442 2°50.821 -999 355 12.9 101570 91
2006-05-16 08:07:53 51°14.437 2°50.792 -999 1 12.9 101570 91
2006-05-16 08:07:58 51°14.431 2°50.763 -999 1 12.9 101570 91
2006-05-16 08:08:02 51°14.427 2°50.739 -999 357 12.9 101570 91
2006-05-16 08:08:08 51°14.422 2°50.704 -999 357 12.9 101560 91
2006-05-16 08:08:12 51°14.419 2°50.68 -999 352 12.9 101560 91
2006-05-16 08:08:18 51°14.415 2°50.644 -999 353 12.9 101570 91
2006-05-16 08:08:21 51°14.413 2°50.626 -999 353 12.9 101570 91
2006-05-16 08:08:28 51°14.408 2°50.584 -999 353 12.9 101570 91
2006-05-16 08:08:34 51°14.404 2°50.548 -999 353 12.9 101570 91
2006-05-16 08:08:38 51°14.402 2°50.524 -999 356 13 101570 91
2006-05-16 08:08:43 51°14.399 2°50.494 -999 353 13 101570 91
2006-05-16 08:08:48 51°14.396 2°50.464 -999 355 13 101570 91
2006-05-16 08:08:53 51°14.392 2°50.434 -999 355 13 101570 91
2006-05-16 08:08:58 51°14.389 2°50.404 -999 355 13 101570 91
2006-05-16 08:09:03 51°14.385 2°50.374 -999 359 13 101570 91
2006-05-16 08:09:08 51°14.381 2°50.344 -999 357 13 101570 92
2006-05-16 08:09:11 51°14.378 2°50.326 -999 357 13 101570 92
2006-05-16 08:09:18 51°14.371 2°50.285 -999 359 13 101570 92
2006-05-16 08:09:23 51°14.365 2°50.255 -999 357 13 101570 92
2006-05-16 08:09:28 51°14.36 2°50.226 -999 355 13 101570 92
2006-05-16 08:09:33 51°14.355 2°50.196 -999 354 13 101570 92
2006-05-16 08:09:38 51°14.35 2°50.167 -999 360 13 101570 92
2006-05-16 08:09:41 51°14.348 2°50.149 -999 357 13 101570 92
2006-05-16 08:09:48 51°14.342 2°50.107 -999 356 13 101570 92
2006-05-16 08:09:53 51°14.338 2°50.077 -999 357 13 101570 92
2006-05-16 08:09:57 51°14.335 2°50.053 -999 355 13 101570 92
2006-05-16 08:10:03 51°14.331 2°50.017 -999 357 13 101570 92
2006-05-16 08:10:08 51°14.327 2°49.986 -999 1 12.9 101570 91
2006-05-16 08:10:13 51°14.324 2°49.956 -999 358 12.9 101570 91
2006-05-16 08:10:18 51°14.32 2°49.926 -999 355 12.9 101570 91
2006-05-16 08:10:23 51°14.316 2°49.895 -999 353 12.9 101570 91
2006-05-16 08:10:28 51°14.313 2°49.865 -999 353 12.9 101570 91
2006-05-16 08:10:33 51°14.309 2°49.835 -999 355 12.9 101570 91
2006-05-16 08:10:38 51°14.305 2°49.805 -999 354 12.9 101570 91
2006-05-16 08:10:43 51°14.301 2°49.774 -999 358 12.9 101570 91
2006-05-16 08:10:48 51°14.298 2°49.744 -999 355 12.9 101570 91
2006-05-16 08:10:53 51°14.293 2°49.714 -999 354 12.9 101570 91
2006-05-16 08:10:58 51°14.289 2°49.684 -999 354 12.9 101570 91
2006-05-16 08:11:03 51°14.285 2°49.654 -999 356 12.9 101570 91
2006-05-16 08:11:08 51°14.28 2°49.624 -999 358 12.9 101570 91
2006-05-16 08:11:13 51°14.276 2°49.594 -999 360 12.9 101570 91
2006-05-16 08:11:18 51°14.271 2°49.564 -999 -999 12.9 101570 92
2006-05-16 08:11:23 51°14.266 2°49.535 -999 358 12.9 101570 92
2006-05-16 08:11:28 51°14.261 2°49.505 -999 359 12.9 101570 92
2006-05-16 08:11:32 51°14.256 2°49.481 -999 356 12.9 101570 92
2006-05-16 08:11:38 51°14.25 2°49.446 -999 360 12.9 101570 92
2006-05-16 08:11:42 51°14.246 2°49.422 -999 357 12.9 101570 92
2006-05-16 08:11:48 51°14.24 2°49.386 -999 358 13 101570 92
2006-05-16 08:11:53 51°14.235 2°49.356 -999 358 13 101570 92
2006-05-16 08:11:58 51°14.231 2°49.326 -999 358 12.9 101570 92
2006-05-16 08:12:03 51°14.227 2°49.296 -999 357 12.9 101570 92
2006-05-16 08:12:08 51°14.223 2°49.266 -999 357 12.9 101570 92
2006-05-16 08:12:13 51°14.219 2°49.235 -999 357 12.9 101570 92
2006-05-16 08:12:18 51°14.216 2°49.205 -999 357 12.9 101570 91
2006-05-16 08:12:23 51°14.211 2°49.175 -999 355 12.9 101570 91
2006-05-16 08:12:28 51°14.208 2°49.145 -999 356 12.9 101570 91
2006-05-16 08:12:32 51°14.204 2°49.121 -999 353 12.9 101570 91
2006-05-16 08:12:38 51°14.199 2°49.085 -999 355 12.9 101570 91
2006-05-16 08:12:43 51°14.195 2°49.055 -999 354 12.9 101570 91
2006-05-16 08:12:48 51°14.191 2°49.024 -999 356 12.9 101570 91
2006-05-16 08:12:53 51°14.187 2°48.994 -999 353 12.9 101570 91
2006-05-16 08:12:58 51°14.182 2°48.964 -999 353 12.9 101570 91
2006-05-16 08:13:02 51°14.179 2°48.94 -999 354 12.9 101570 91
2006-05-16 08:13:08 51°14.173 2°48.905 -999 354 12.9 101560 91
2006-05-16 08:13:13 51°14.169 2°48.874 -999 354 12.9 101560 91
2006-05-16 08:13:18 51°14.164 2°48.845 -999 353 12.9 101570 91
2006-05-16 08:13:23 51°14.159 2°48.815 -999 353 12.9 101570 91
2006-05-16 08:13:28 51°14.155 2°48.785 -999 356 12.9 101570 91
2006-05-16 08:13:33 51°14.15 2°48.755 -999 353 12.9 101570 91
2006-05-16 08:13:38 51°14.146 2°48.724 -999 353 12.9 101570 91
2006-05-16 08:13:42 51°14.143 2°48.7 -999 356 12.9 101570 91
2006-05-16 08:13:48 51°14.139 2°48.664 -999 356 12.9 101570 92
2006-05-16 08:13:53 51°14.135 2°48.639 -999 354 12.9 101570 92
2006-05-16 08:13:58 51°14.131 2°48.609 -999 356 12.9 101570 92
2006-05-16 08:14:04 51°14.126 2°48.573 -999 354 12.9 101570 92
2006-05-16 08:14:09 51°14.122 2°48.543 -999 356 12.9 101570 92
2006-05-16 08:14:13 51°14.118 2°48.519 -999 357 12.9 101570 92
2006-05-16 08:14:19 51°14.112 2°48.483 -999 357 12.9 101570 92
2006-05-16 08:14:24 51°14.107 2°48.453 -999 -999 12.9 101570 92
2006-05-16 08:14:28 51°14.103 2°48.429 -999 1 12.9 101570 92
2006-05-16 08:14:33 51°14.098 2°48.4 -999 1 12.9 101570 92
2006-05-16 08:14:39 51°14.092 2°48.368 -999 2 12.9 101570 92
2006-05-16 08:14:44 51°14.088 2°48.342 -999 1 12.9 101570 92
2006-05-16 08:14:49 51°14.083 2°48.318 -999 359 12.9 101580 92
2006-05-16 08:14:54 51°14.079 2°48.294 -999 357 12.9 101580 92
2006-05-16 08:14:59 51°14.076 2°48.273 -999 358 12.9 101570 92
2006-05-16 08:15:04 51°14.073 2°48.251 -999 356 12.9 101570 92
2006-05-16 08:15:09 51°14.07 2°48.231 -999 353 12.9 101570 92
2006-05-16 08:15:13 51°14.068 2°48.216 -999 353 12.9 101570 92
2006-05-16 08:15:19 51°14.065 2°48.194 -999 351 12.9 101580 92
2006-05-16 08:15:23 51°14.063 2°48.181 -999 351 12.9 101580 92
2006-05-16 08:15:29 51°14.061 2°48.161 -999 350 12.9 101580 92
2006-05-16 08:15:33 51°14.06 2°48.149 -999 346 12.9 101580 92
2006-05-16 08:15:39 51°14.058 2°48.132 -999 348 12.9 101580 92
2006-05-16 08:15:44 51°14.057 2°48.118 -999 346 12.9 101580 92
2006-05-16 08:15:49 51°14.056 2°48.105 -999 346 12.9 101580 92
2006-05-16 08:15:53 51°14.055 2°48.095 -999 349 12.9 101580 92
2006-05-16 08:15:59 51°14.054 2°48.08 -999 345 12.9 101580 92
2006-05-16 08:16:04 51°14.053 2°48.069 -999 343 12.9 101580 92
2006-05-16 08:16:09 51°14.053 2°48.058 -999 343 12.9 101580 92
2006-05-16 08:16:13 51°14.052 2°48.05 -999 330 12.9 101580 92
2006-05-16 08:16:19 51°14.052 2°48.04 -999 330 12.9 101580 92
2006-05-16 08:16:24 51°14.052 2°48.033 -999 317 12.9 101580 92
2006-05-16 08:16:29 51°14.052 2°48.027 -999 315 12.9 101580 92
2006-05-16 08:16:34 51°14.052 2°48.022 -999 307 12.9 101580 92
2006-05-16 08:16:39 51°14.052 2°48.018 -999 304 12.9 101580 92
2006-05-16 08:16:44 51°14.051 2°48.015 -999 301 12.9 101580 92
2006-05-16 08:16:49 51°14.05 2°48.013 -999 295 12.9 101580 92
2006-05-16 08:16:53 51°14.049 2°48.012 -999 289 12.9 101580 92
2006-05-16 08:16:59 51°14.047 2°48.01 -999 282 12.9 101590 92
2006-05-16 08:17:04 51°14.046 2°48.008 -999 280 12.9 101590 92
2006-05-16 08:17:09 51°14.045 2°48.007 -999 285 12.9 101580 92
2006-05-16 08:17:13 51°14.044 2°48.006 -999 275 12.9 101580 92
2006-05-16 08:17:19 51°14.042 2°48.004 -999 277 12.9 101580 92
2006-05-16 08:17:24 51°14.041 2°48.003 -999 278 12.9 101580 92
2006-05-16 08:17:29 51°14.04 2°48.001 -999 276 13 101590 92
2006-05-16 08:17:35 51°14.038 2°47.999 -999 268 13 101590 92
2006-05-16 08:17:39 51°14.037 2°47.998 -999 264 13 101590 92
2006-05-16 08:17:45 51°14.036 2°47.996 -999 268 13 101590 92
2006-05-16 08:17:50 51°14.035 2°47.994 -999 262 13 101590 92
2006-05-16 08:17:55 51°14.034 2°47.993 -999 265 13 101590 92
2006-05-16 08:18:00 51°14.032 2°47.992 -999 260 13 101590 92
2006-05-16 08:18:04 51°14.032 2°47.991 -999 261 13 101590 92
2006-05-16 08:18:09 51°14.031 2°47.989 -999 266 13 101580 92
2006-05-16 08:18:13 51°14.03 2°47.988 -999 262 13 101580 92
2006-05-16 08:18:19 51°14.028 2°47.986 -999 263 13 101590 92
2006-05-16 08:18:24 51°14.027 2°47.984 -999 261 13 101590 92
2006-05-16 08:18:29 51°14.026 2°47.983 -999 267 13 101590 92
2006-05-16 08:18:33 51°14.025 2°47.982 -999 261 13 101590 92
2006-05-16 08:18:39 51°14.024 2°47.98 -999 260 13 101580 92
2006-05-16 08:18:44 51°14.023 2°47.978 -999 260 13 101580 92
2006-05-16 08:18:49 51°14.022 2°47.977 -999 259 13 101590 92
2006-05-16 08:18:54 51°14.021 2°47.975 -999 257 13 101590 92
2006-05-16 08:18:59 51°14.02 2°47.974 -999 255 13 101590 92
2006-05-16 08:19:04 51°14.019 2°47.972 -999 260 13 101590 92
2006-05-16 08:19:09 51°14.018 2°47.971 -999 261 12.9 101590 92
2006-05-16 08:19:13 51°14.017 2°47.969 -999 261 12.9 101590 92
2006-05-16 08:19:19 51°14.016 2°47.968 -999 259 12.9 101590 92
2006-05-16 08:19:24 51°14.015 2°47.966 -999 251 12.9 101590 92
2006-05-16 08:19:28 51°14.014 2°47.965 -999 253 12.9 101590 92
2006-05-16 08:19:33 51°14.013 2°47.964 -999 252 12.9 101590 92
2006-05-16 08:19:39 51°14.013 2°47.962 -999 247 12.9 101590 92
2006-05-16 08:19:44 51°14.012 2°47.961 -999 248 12.9 101590 92
2006-05-16 08:19:49 51°14.011 2°47.96 -999 254 12.9 101590 92
2006-05-16 08:19:54 51°14.01 2°47.958 -999 250 12.9 101590 92
2006-05-16 08:19:59 51°14.009 2°47.957 -999 248 12.9 101590 92
2006-05-16 08:20:04 51°14.008 2°47.955 -999 248 12.9 101590 92
2006-05-16 08:20:09 51°14.007 2°47.954 -999 251 12.9 101590 92
2006-05-16 08:20:14 51°14.006 2°47.953 -999 248 12.9 101590 92
2006-05-16 08:20:18 51°14.005 2°47.951 -999 242 12.9 101590 92
2006-05-16 08:20:24 51°14.004 2°47.95 -999 247 12.9 101590 92
2006-05-16 08:20:29 51°14.003 2°47.949 -999 243 12.9 101590 92
2006-05-16 08:20:33 51°14.003 2°47.948 -999 245 12.9 101590 92
2006-05-16 08:20:39 51°14.002 2°47.946 -999 245 12.9 101580 92
2006-05-16 08:20:44 51°14.001 2°47.944 -999 252 12.9 101580 92
2006-05-16 08:20:48 51°14 2°47.943 -999 251 12.9 101590 92
2006-05-16 08:20:53 51°13.999 2°47.942 -999 247 12.9 101590 92
2006-05-16 08:20:58 51°13.999 2°47.94 -999 249 12.9 101590 92
2006-05-16 08:21:03 51°13.998 2°47.94 -999 253 12.9 101590 92
2006-05-16 08:21:08 51°13.997 2°47.938 -999 249 12.9 101590 92
2006-05-16 08:21:13 51°13.996 2°47.937 -999 246 12.9 101590 92
2006-05-16 08:21:17 51°13.995 2°47.936 -999 251 12.9 101580 92
2006-05-16 08:21:23 51°13.994 2°47.934 -999 255 12.9 101580 92
2006-05-16 08:21:29 51°13.993 2°47.932 -999 257 12.9 101590 92
2006-05-16 08:21:33 51°13.993 2°47.931 -999 249 12.9 101590 92
2006-05-16 08:21:38 51°13.992 2°47.93 -999 249 12.8 101590 92
2006-05-16 08:21:44 51°13.991 2°47.928 -999 249 12.8 101590 92
2006-05-16 08:21:49 51°13.99 2°47.927 -999 246 12.9 101590 92
2006-05-16 08:21:54 51°13.989 2°47.925 -999 242 12.9 101590 92
2006-05-16 08:21:59 51°13.988 2°47.924 -999 242 12.8 101590 92
2006-05-16 08:22:03 51°13.988 2°47.922 -999 245 12.8 101590 92
2006-05-16 08:22:09 51°13.986 2°47.921 -999 251 12.8 101590 92
2006-05-16 08:22:13 51°13.986 2°47.919 -999 241 12.8 101590 92
2006-05-16 08:22:16 51°13.985 2°47.919 -999 249 12.8 101590 92
2006-05-16 08:22:23 51°13.984 2°47.916 -999 251 12.8 101590 92
2006-05-16 08:22:28 51°13.983 2°47.915 -999 252 12.8 101590 91
2006-05-16 08:22:34 51°13.983 2°47.913 -999 245 12.8 101590 91
2006-05-16 08:22:37 51°13.982 2°47.913 -999 253 12.8 101590 92
2006-05-16 08:22:43 51°13.981 2°47.91 -999 248 12.8 101590 92
2006-05-16 08:22:47 51°13.981 2°47.909 -999 251 12.8 101580 92
2006-05-16 08:22:53 51°13.98 2°47.908 -999 253 12.8 101580 92
2006-05-16 08:22:57 51°13.979 2°47.907 -999 253 12.8 101590 92
2006-05-16 08:23:03 51°13.978 2°47.905 -999 254 12.8 101590 92
2006-05-16 08:23:07 51°13.977 2°47.903 -999 253 12.8 101590 92
2006-05-16 08:23:13 51°13.977 2°47.901 -999 253 12.8 101590 92
2006-05-16 08:23:19 51°13.976 2°47.9 -999 256 12.8 101590 92
2006-05-16 08:23:24 51°13.975 2°47.898 -999 259 12.8 101590 92
2006-05-16 08:23:28 51°13.974 2°47.897 -999 257 12.8 101590 92
2006-05-16 08:23:33 51°13.974 2°47.895 -999 255 12.8 101590 92
2006-05-16 08:23:38 51°13.973 2°47.894 -999 248 12.8 101590 92
2006-05-16 08:23:43 51°13.972 2°47.893 -999 254 12.8 101590 92
2006-05-16 08:23:48 51°13.971 2°47.891 -999 260 12.8 101590 92
2006-05-16 08:23:54 51°13.97 2°47.889 -999 245 12.8 101590 92
2006-05-16 08:23:59 51°13.97 2°47.888 -999 255 12.8 101590 92
2006-05-16 08:24:03 51°13.969 2°47.887 -999 258 12.8 101590 92
2006-05-16 08:24:09 51°13.968 2°47.885 -999 257 12.8 101580 92
2006-05-16 08:24:13 51°13.967 2°47.884 -999 251 12.8 101580 92
2006-05-16 08:24:17 51°13.967 2°47.882 -999 264 12.8 101590 92
2006-05-16 08:24:23 51°13.966 2°47.881 -999 260 12.8 101590 92
2006-05-16 08:24:28 51°13.965 2°47.879 -999 256 12.8 101590 92
2006-05-16 08:24:33 51°13.965 2°47.878 -999 259 12.8 101590 92
2006-05-16 08:24:37 51°13.964 2°47.877 -999 257 12.8 101590 92
2006-05-16 08:24:43 51°13.964 2°47.874 -999 260 12.8 101590 92
2006-05-16 08:24:48 51°13.963 2°47.873 -999 258 12.8 101590 92
2006-05-16 08:24:54 51°13.962 2°47.872 -999 261 12.8 101590 92
2006-05-16 08:24:59 51°13.961 2°47.87 -999 262 12.8 101590 92
2006-05-16 08:25:03 51°13.961 2°47.869 -999 259 12.8 101590 92
2006-05-16 08:25:09 51°13.96 2°47.867 -999 260 12.8 101590 92
2006-05-16 08:25:13 51°13.959 2°47.866 -999 260 12.8 101590 92
2006-05-16 08:25:19 51°13.958 2°47.864 -999 257 12.8 101590 92
2006-05-16 08:25:24 51°13.958 2°47.862 -999 260 12.8 101590 92
2006-05-16 08:25:29 51°13.957 2°47.861 -999 266 12.8 101590 92
2006-05-16 08:25:33 51°13.956 2°47.859 -999 264 12.8 101590 92
2006-05-16 08:25:39 51°13.956 2°47.858 -999 263 12.8 101590 92
2006-05-16 08:25:43 51°13.955 2°47.857 -999 261 12.8 101590 92
2006-05-16 08:25:48 51°13.954 2°47.855 -999 265 12.8 101590 92
2006-05-16 08:25:53 51°13.954 2°47.854 -999 265 12.8 101590 92
2006-05-16 08:25:58 51°13.953 2°47.852 -999 265 12.8 101590 92
2006-05-16 08:26:04 51°13.953 2°47.85 -999 266 12.8 101590 92
2006-05-16 08:26:09 51°13.953 2°47.849 -999 265 12.8 101590 92
2006-05-16 08:26:13 51°13.953 2°47.847 -999 268 12.8 101590 92
2006-05-16 08:26:18 51°13.954 2°47.844 -999 266 12.9 101590 92
2006-05-16 08:26:24 51°13.957 2°47.841 -999 272 12.9 101590 92
2006-05-16 08:26:29 51°13.962 2°47.837 -999 273 12.8 101590 92
2006-05-16 08:26:34 51°13.966 2°47.834 -999 275 12.8 101590 92
2006-05-16 08:26:38 51°13.971 2°47.831 -999 274 12.9 101590 92
2006-05-16 08:26:43 51°13.977 2°47.828 -999 267 12.9 101590 92
2006-05-16 08:26:48 51°13.985 2°47.825 -999 269 12.8 101590 92
2006-05-16 08:26:53 51°13.992 2°47.823 -999 271 12.8 101590 92
2006-05-16 08:26:57 51°13.998 2°47.821 -999 272 12.8 101590 92
2006-05-16 08:27:04 51°14.01 2°47.821 -999 267 12.8 101590 92
2006-05-16 08:27:08 51°14.016 2°47.821 -999 262 12.8 101590 92
2006-05-16 08:27:13 51°14.025 2°47.823 -999 263 12.8 101590 92
2006-05-16 08:27:19 51°14.036 2°47.826 -999 268 12.8 101590 92
2006-05-16 08:27:24 51°14.044 2°47.831 -999 259 12.8 101590 92
2006-05-16 08:27:28 51°14.051 2°47.835 -999 257 12.8 101590 92
2006-05-16 08:27:33 51°14.057 2°47.843 -999 232 12.8 101590 92
2006-05-16 08:27:39 51°14.066 2°47.854 -999 220 12.9 101600 92
2006-05-16 08:27:43 51°14.07 2°47.863 -999 173 12.9 101600 92
2006-05-16 08:27:48 51°14.074 2°47.874 -999 174 12.9 101600 92
2006-05-16 08:27:53 51°14.077 2°47.886 -999 102 12.9 101600 92
2006-05-16 08:27:59 51°14.08 2°47.899 -999 119 12.9 101600 92
2006-05-16 08:28:03 51°14.082 2°47.908 -999 178 12.9 101600 92
2006-05-16 08:28:08 51°14.084 2°47.919 -999 164 12.9 101600 92
2006-05-16 08:28:14 51°14.086 2°47.931 -999 160 12.9 101600 92
2006-05-16 08:28:18 51°14.087 2°47.94 -999 159 12.9 101600 92
2006-05-16 08:28:24 51°14.088 2°47.952 -999 156 12.9 101600 92
2006-05-16 08:28:28 51°14.09 2°47.959 -999 156 12.9 101600 92
2006-05-16 08:28:33 51°14.091 2°47.969 -999 157 12.9 101600 92
2006-05-16 08:28:37 51°14.091 2°47.976 -999 155 12.9 101600 92
2006-05-16 08:28:44 51°14.092 2°47.988 -999 147 12.9 101600 92
2006-05-16 08:28:49 51°14.092 2°47.996 -999 151 12.9 101600 92
2006-05-16 08:28:53 51°14.093 2°48.003 -999 154 12.9 101600 92
2006-05-16 08:28:59 51°14.093 2°48.012 -999 153 12.9 101600 91
2006-05-16 08:29:04 51°14.093 2°48.021 -999 158 12.9 101600 91
2006-05-16 08:29:09 51°14.093 2°48.028 -999 159 12.9 101600 91
2006-05-16 08:29:13 51°14.093 2°48.034 -999 154 12.9 101600 91
2006-05-16 08:29:19 51°14.093 2°48.044 -999 146 12.9 101600 91
2006-05-16 08:29:23 51°14.093 2°48.05 -999 147 12.9 101600 91
2006-05-16 08:29:28 51°14.093 2°48.057 -999 146 12.9 101600 91
2006-05-16 08:29:33 51°14.092 2°48.065 -999 146 12.9 101600 91
2006-05-16 08:29:39 51°14.092 2°48.073 -999 149 12.8 101600 91
2006-05-16 08:29:43 51°14.092 2°48.079 -999 146 12.8 101600 91
2006-05-16 08:29:49 51°14.092 2°48.088 -999 145 12.8 101600 91
2006-05-16 08:29:53 51°14.091 2°48.094 -999 150 12.8 101600 91
2006-05-16 08:29:59 51°14.091 2°48.102 -999 151 12.8 101600 91
2006-05-16 08:30:03 51°14.091 2°48.108 -999 153 12.8 101600 91
2006-05-16 08:30:09 51°14.091 2°48.117 -999 161 12.8 101600 91
2006-05-16 08:30:13 51°14.09 2°48.123 -999 153 12.8 101600 91
2006-05-16 08:30:19 51°14.09 2°48.131 -999 152 12.8 101600 91
2006-05-16 08:30:23 51°14.09 2°48.137 -999 145 12.8 101600 91
2006-05-16 08:30:28 51°14.09 2°48.144 -999 145 12.8 101600 91
2006-05-16 08:30:33 51°14.089 2°48.151 -999 149 12.8 101600 91
2006-05-16 08:30:39 51°14.089 2°48.159 -999 150 12.8 101600 91
2006-05-16 08:30:44 51°14.088 2°48.166 -999 153 12.8 101600 91
2006-05-16 08:30:49 51°14.088 2°48.173 -999 148 12.8 101600 91
2006-05-16 08:30:53 51°14.088 2°48.179 -999 146 12.8 101600 91
2006-05-16 08:30:59 51°14.087 2°48.187 -999 148 12.8 101600 91
2006-05-16 08:31:03 51°14.087 2°48.192 -999 148 12.8 101600 91
2006-05-16 08:31:09 51°14.086 2°48.201 -999 149 12.8 101600 91
2006-05-16 08:31:13 51°14.085 2°48.206 -999 144 12.8 101600 91
2006-05-16 08:31:17 51°14.084 2°48.211 -999 144 12.8 101600 91
2006-05-16 08:31:23 51°14.083 2°48.219 -999 140 12.8 101600 91
2006-05-16 08:31:27 51°14.082 2°48.225 -999 136 12.8 101600 91
2006-05-16 08:31:34 51°14.08 2°48.234 -999 140 12.8 101600 91
2006-05-16 08:31:39 51°14.079 2°48.241 -999 135 12.8 101600 91
2006-05-16 08:31:43 51°14.078 2°48.246 -999 139 12.8 101600 91
2006-05-16 08:31:49 51°14.076 2°48.254 -999 138 12.8 101600 91
2006-05-16 08:31:54 51°14.074 2°48.261 -999 145 12.8 101600 91
2006-05-16 08:31:59 51°14.073 2°48.267 -999 148 12.8 101600 91
2006-05-16 08:32:04 51°14.072 2°48.274 -999 144 12.8 101600 91
2006-05-16 08:32:08 51°14.07 2°48.279 -999 146 12.8 101610 91
2006-05-16 08:32:13 51°14.069 2°48.285 -999 145 12.8 101610 91
2006-05-16 08:32:19 51°14.067 2°48.294 -999 148 12.8 101600 91
2006-05-16 08:32:24 51°14.065 2°48.3 -999 143 12.8 101600 91
2006-05-16 08:32:28 51°14.064 2°48.305 -999 143 12.8 101600 91
2006-05-16 08:32:33 51°14.062 2°48.312 -999 139 12.8 101600 91
2006-05-16 08:32:39 51°14.059 2°48.32 -999 143 12.8 101600 91
2006-05-16 08:32:44 51°14.057 2°48.326 -999 137 12.8 101600 91
2006-05-16 08:32:49 51°14.055 2°48.332 -999 140 12.8 101600 91
2006-05-16 08:32:54 51°14.053 2°48.339 -999 145 12.8 101600 91
2006-05-16 08:32:59 51°14.051 2°48.345 -999 134 12.8 101600 91
2006-05-16 08:33:04 51°14.049 2°48.351 -999 139 12.8 101600 91
2006-05-16 08:33:08 51°14.047 2°48.356 -999 139 12.8 101600 91
2006-05-16 08:33:13 51°14.046 2°48.363 -999 133 12.8 101600 91
2006-05-16 08:33:19 51°14.043 2°48.371 -999 136 12.8 101600 91
2006-05-16 08:33:23 51°14.042 2°48.376 -999 133 12.8 101600 91
2006-05-16 08:33:29 51°14.04 2°48.384 -999 141 12.8 101600 91
2006-05-16 08:33:33 51°14.039 2°48.389 -999 138 12.8 101600 91
2006-05-16 08:33:37 51°14.037 2°48.394 -999 134 12.8 101600 91
2006-05-16 08:33:43 51°14.036 2°48.402 -999 151 12.8 101600 91
2006-05-16 08:33:47 51°14.034 2°48.407 -999 151 12.8 101600 91
2006-05-16 08:33:53 51°14.033 2°48.415 -999 141 12.8 101600 91
2006-05-16 08:33:59 51°14.032 2°48.422 -999 139 12.8 101610 91
2006-05-16 08:34:03 51°14.031 2°48.428 -999 151 12.8 101610 91
2006-05-16 08:34:08 51°14.03 2°48.434 -999 148 12.8 101600 91
2006-05-16 08:34:13 51°14.029 2°48.441 -999 145 12.8 101600 91
2006-05-16 08:34:19 51°14.029 2°48.45 -999 152 12.8 101610 91
2006-05-16 08:34:23 51°14.029 2°48.455 -999 165 12.8 101610 91
2006-05-16 08:34:28 51°14.029 2°48.462 -999 160 12.8 101600 91
2006-05-16 08:34:33 51°14.029 2°48.469 -999 182 12.8 101600 91
2006-05-16 08:34:37 51°14.03 2°48.474 -999 175 12.8 101600 91
2006-05-16 08:34:44 51°14.032 2°48.485 -999 176 12.8 101600 91
2006-05-16 08:34:49 51°14.033 2°48.492 -999 185 12.8 101600 91
2006-05-16 08:34:54 51°14.034 2°48.499 -999 184 12.8 101600 91
2006-05-16 08:34:59 51°14.036 2°48.505 -999 194 12.8 101610 91
2006-05-16 08:35:03 51°14.038 2°48.511 -999 192 12.8 101610 91
2006-05-16 08:35:09 51°14.04 2°48.519 -999 189 12.8 101610 91
2006-05-16 08:35:13 51°14.042 2°48.525 -999 194 12.8 101610 91
2006-05-16 08:35:17 51°14.044 2°48.53 -999 196 12.8 101610 91
2006-05-16 08:35:23 51°14.047 2°48.538 -999 194 12.8 101610 91
2006-05-16 08:35:29 51°14.05 2°48.546 -999 197 12.9 101610 92
2006-05-16 08:35:34 51°14.052 2°48.553 -999 193 12.9 101610 92
2006-05-16 08:35:37 51°14.054 2°48.557 -999 195 12.9 101610 92
2006-05-16 08:35:43 51°14.056 2°48.565 -999 204 12.9 101610 92
2006-05-16 08:35:47 51°14.058 2°48.57 -999 186 12.9 101610 91
2006-05-16 08:35:53 51°14.061 2°48.578 -999 200 12.9 101610 91
2006-05-16 08:35:59 51°14.063 2°48.585 -999 187 12.9 101610 91
2006-05-16 08:36:03 51°14.065 2°48.59 -999 192 12.9 101610 91
2006-05-16 08:36:08 51°14.067 2°48.596 -999 195 13.1 101610 92
2006-05-16 08:36:13 51°14.07 2°48.602 -999 187 13.1 101610 92
2006-05-16 08:36:17 51°14.071 2°48.607 -999 190 13.1 101610 92
2006-05-16 08:36:23 51°14.074 2°48.613 -999 192 13.1 101610 92
2006-05-16 08:36:28 51°14.076 2°48.619 -999 199 13.2 101610 92
2006-05-16 08:36:34 51°14.078 2°48.626 -999 199 13.2 101610 92
2006-05-16 08:36:39 51°14.081 2°48.632 -999 202 13.2 101610 92
2006-05-16 08:36:43 51°14.082 2°48.636 -999 202 13.2 101610 92
2006-05-16 08:36:48 51°14.085 2°48.642 -999 199 13.2 101610 90
2006-05-16 08:36:53 51°14.087 2°48.647 -999 210 13.2 101610 90
2006-05-16 08:36:59 51°14.09 2°48.654 -999 204 13.3 101610 90
2006-05-16 08:37:03 51°14.092 2°48.658 -999 200 13.3 101610 90
2006-05-16 08:37:08 51°14.094 2°48.663 -999 199 13.2 101610 89
2006-05-16 08:37:14 51°14.097 2°48.67 -999 211 13.2 101610 89
2006-05-16 08:37:19 51°14.099 2°48.675 -999 212 13.2 101610 89
2006-05-16 08:37:24 51°14.102 2°48.68 -999 211 13.2 101610 89
2006-05-16 08:37:29 51°14.104 2°48.685 -999 209 13.2 101610 89
2006-05-16 08:37:33 51°14.106 2°48.689 -999 209 13.2 101610 89
2006-05-16 08:37:37 51°14.108 2°48.693 -999 215 13.2 101610 89
2006-05-16 08:37:43 51°14.111 2°48.699 -999 210 13.2 101610 89
2006-05-16 08:37:49 51°14.114 2°48.705 -999 205 13.2 101610 89
2006-05-16 08:37:53 51°14.116 2°48.709 -999 220 13.2 101610 89
2006-05-16 08:37:57 51°14.118 2°48.713 -999 212 13.2 101610 89
2006-05-16 08:38:03 51°14.121 2°48.719 -999 219 13.2 101610 89
2006-05-16 08:38:09 51°14.124 2°48.725 -999 213 13.2 101610 89
2006-05-16 08:38:14 51°14.127 2°48.73 -999 208 13.2 101610 89
2006-05-16 08:38:19 51°14.129 2°48.735 -999 198 13.1 101610 89
2006-05-16 08:38:23 51°14.132 2°48.739 -999 219 13.1 101610 89
2006-05-16 08:38:27 51°14.133 2°48.743 -999 205 13.1 101610 89
2006-05-16 08:38:34 51°14.137 2°48.75 -999 204 13.1 101610 89
2006-05-16 08:38:39 51°14.139 2°48.755 -999 203 13.1 101610 89
2006-05-16 08:38:43 51°14.142 2°48.759 -999 206 13.1 101610 89
2006-05-16 08:38:48 51°14.145 2°48.764 -999 210 13.1 101610 89
2006-05-16 08:38:53 51°14.147 2°48.768 -999 212 13.1 101610 89
2006-05-16 08:38:57 51°14.149 2°48.772 -999 209 13.1 101610 89
2006-05-16 08:39:03 51°14.152 2°48.778 -999 211 13.1 101610 89
2006-05-16 08:39:07 51°14.154 2°48.782 -999 206 13.1 101610 89
2006-05-16 08:39:13 51°14.157 2°48.788 -999 197 13.1 101610 89
2006-05-16 08:39:17 51°14.16 2°48.792 -999 206 13 101610 89
2006-05-16 08:39:24 51°14.163 2°48.799 -999 218 13 101610 89
2006-05-16 08:39:28 51°14.165 2°48.802 -999 217 13 101610 89
2006-05-16 08:39:34 51°14.168 2°48.808 -999 218 13 101610 89
2006-05-16 08:39:37 51°14.17 2°48.811 -999 212 13 101610 89
2006-05-16 08:39:43 51°14.173 2°48.817 -999 213 13 101610 89
2006-05-16 08:39:48 51°14.176 2°48.821 -999 208 13 101610 89
2006-05-16 08:39:54 51°14.179 2°48.827 -999 207 13 101610 89
2006-05-16 08:39:59 51°14.181 2°48.832 -999 215 13 101610 89
2006-05-16 08:40:03 51°14.184 2°48.836 -999 212 13 101610 89
2006-05-16 08:40:09 51°14.187 2°48.842 -999 211 13 101610 89
2006-05-16 08:40:14 51°14.19 2°48.847 -999 207 13 101610 89
2006-05-16 08:40:18 51°14.191 2°48.851 -999 205 13 101610 89
2006-05-16 08:40:23 51°14.194 2°48.856 -999 212 13 101610 89
2006-05-16 08:40:29 51°14.197 2°48.862 -999 202 13 101610 89
2006-05-16 08:40:33 51°14.199 2°48.865 -999 204 13 101610 89
2006-05-16 08:40:38 51°14.202 2°48.87 -999 210 13 101610 89
2006-05-16 08:40:44 51°14.205 2°48.876 -999 203 13 101610 89
2006-05-16 08:40:49 51°14.207 2°48.881 -999 201 12.9 101610 89
2006-05-16 08:40:53 51°14.209 2°48.885 -999 208 12.9 101610 89
2006-05-16 08:40:57 51°14.211 2°48.889 -999 209 12.9 101600 89
2006-05-16 08:41:03 51°14.214 2°48.895 -999 208 12.9 101600 89
2006-05-16 08:41:08 51°14.217 2°48.9 -999 218 12.9 101610 89
2006-05-16 08:41:13 51°14.219 2°48.905 -999 202 12.9 101610 89
2006-05-16 08:41:17 51°14.222 2°48.909 -999 210 12.9 101610 90
2006-05-16 08:41:24 51°14.225 2°48.915 -999 220 12.9 101610 90
2006-05-16 08:41:29 51°14.228 2°48.92 -999 219 12.9 101610 89
2006-05-16 08:41:34 51°14.231 2°48.925 -999 212 12.9 101610 89
2006-05-16 08:41:39 51°14.233 2°48.93 -999 217 12.9 101610 90
2006-05-16 08:41:44 51°14.235 2°48.935 -999 219 12.9 101610 90
2006-05-16 08:41:48 51°14.237 2°48.939 -999 220 12.9 101610 90
2006-05-16 08:41:53 51°14.24 2°48.944 -999 217 12.9 101610 90
2006-05-16 08:41:58 51°14.242 2°48.948 -999 217 12.9 101610 90
2006-05-16 08:42:04 51°14.245 2°48.954 -999 209 12.9 101610 90
2006-05-16 08:42:09 51°14.248 2°48.959 -999 204 12.9 101610 90
2006-05-16 08:42:13 51°14.25 2°48.963 -999 205 12.9 101610 90
2006-05-16 08:42:19 51°14.253 2°48.969 -999 205 12.9 101610 90
2006-05-16 08:42:23 51°14.255 2°48.973 -999 209 12.9 101610 90
2006-05-16 08:42:29 51°14.257 2°48.979 -999 213 12.9 101610 90
2006-05-16 08:42:34 51°14.26 2°48.984 -999 212 12.9 101610 90
2006-05-16 08:42:38 51°14.262 2°48.987 -999 215 12.9 101610 90
2006-05-16 08:42:44 51°14.265 2°48.994 -999 204 12.9 101610 90
2006-05-16 08:42:49 51°14.267 2°48.998 -999 205 12.9 101610 90
2006-05-16 08:42:54 51°14.269 2°49.003 -999 217 12.9 101610 90
2006-05-16 08:42:59 51°14.272 2°49.008 -999 214 12.9 101610 90
2006-05-16 08:43:04 51°14.274 2°49.014 -999 212 12.9 101610 90
2006-05-16 08:43:08 51°14.276 2°49.017 -999 201 12.9 101600 90
2006-05-16 08:43:14 51°14.279 2°49.024 -999 214 12.9 101600 90
2006-05-16 08:43:19 51°14.282 2°49.029 -999 214 12.9 101610 90
2006-05-16 08:43:23 51°14.283 2°49.033 -999 214 12.9 101610 90
2006-05-16 08:43:28 51°14.286 2°49.038 -999 216 12.9 101610 90
2006-05-16 08:43:33 51°14.288 2°49.042 -999 220 12.9 101610 90
2006-05-16 08:43:39 51°14.291 2°49.048 -999 208 12.9 101610 90
2006-05-16 08:43:43 51°14.293 2°49.053 -999 205 12.9 101610 90
2006-05-16 08:43:49 51°14.296 2°49.059 -999 221 12.9 101610 90
2006-05-16 08:43:54 51°14.299 2°49.064 -999 218 12.9 101610 90
2006-05-16 08:43:59 51°14.301 2°49.069 -999 217 12.9 101600 90
2006-05-16 08:44:04 51°14.304 2°49.074 -999 217 12.9 101600 90
2006-05-16 08:44:09 51°14.306 2°49.079 -999 221 12.9 101610 90
2006-05-16 08:44:13 51°14.308 2°49.083 -999 217 12.9 101610 90
2006-05-16 08:44:17 51°14.31 2°49.088 -999 222 12.9 101610 90
2006-05-16 08:44:24 51°14.314 2°49.095 -999 223 12.9 101610 90
2006-05-16 08:44:29 51°14.316 2°49.1 -999 225 12.9 101610 90
2006-05-16 08:44:34 51°14.319 2°49.105 -999 220 12.9 101610 90
2006-05-16 08:44:38 51°14.321 2°49.109 -999 217 12.9 101600 90
2006-05-16 08:44:43 51°14.324 2°49.114 -999 219 12.9 101600 90
2006-05-16 08:44:49 51°14.327 2°49.12 -999 218 12.9 101610 91
2006-05-16 08:44:53 51°14.329 2°49.125 -999 218 12.9 101610 91
2006-05-16 08:44:59 51°14.332 2°49.131 -999 217 12.9 101610 91
2006-05-16 08:45:03 51°14.334 2°49.135 -999 218 12.9 101610 91
2006-05-16 08:45:08 51°14.337 2°49.141 -999 219 12.9 101610 91
2006-05-16 08:45:14 51°14.34 2°49.147 -999 218 12.9 101610 91
2006-05-16 08:45:19 51°14.343 2°49.152 -999 219 12.9 101610 90
2006-05-16 08:45:23 51°14.345 2°49.156 -999 226 12.9 101610 90
2006-05-16 08:45:28 51°14.348 2°49.161 -999 222 12.9 101610 90
2006-05-16 08:45:33 51°14.351 2°49.166 -999 220 12.9 101610 90
2006-05-16 08:45:38 51°14.353 2°49.171 -999 219 12.9 101610 90
2006-05-16 08:45:44 51°14.356 2°49.177 -999 224 12.9 101610 90
2006-05-16 08:45:49 51°14.359 2°49.182 -999 217 12.9 101610 90
2006-05-16 08:45:54 51°14.362 2°49.187 -999 216 12.9 101610 90
2006-05-16 08:45:59 51°14.365 2°49.192 -999 225 12.9 101610 90
2006-05-16 08:46:03 51°14.367 2°49.196 -999 221 12.9 101610 90
2006-05-16 08:46:09 51°14.37 2°49.202 -999 220 12.9 101600 91
2006-05-16 08:46:13 51°14.372 2°49.206 -999 223 12.9 101600 91
2006-05-16 08:46:19 51°14.376 2°49.212 -999 220 12.9 101610 91
2006-05-16 08:46:24 51°14.378 2°49.217 -999 217 12.9 101610 91
2006-05-16 08:46:28 51°14.38 2°49.221 -999 219 12.9 101610 91
2006-05-16 08:46:34 51°14.383 2°49.227 -999 223 12.9 101610 91
2006-05-16 08:46:38 51°14.386 2°49.231 -999 219 12.9 101610 91
2006-05-16 08:46:44 51°14.389 2°49.237 -999 219 12.9 101610 91
2006-05-16 08:46:49 51°14.392 2°49.242 -999 221 12.9 101610 91
2006-05-16 08:46:54 51°14.394 2°49.247 -999 216 12.9 101610 91
2006-05-16 08:46:58 51°14.397 2°49.251 -999 218 12.9 101600 91
2006-05-16 08:47:03 51°14.399 2°49.256 -999 214 12.9 101600 91
2006-05-16 08:47:09 51°14.403 2°49.262 -999 214 12.9 101610 90
2006-05-16 08:47:13 51°14.405 2°49.266 -999 217 12.9 101610 90
2006-05-16 08:47:19 51°14.408 2°49.272 -999 215 12.9 101610 90
2006-05-16 08:47:23 51°14.41 2°49.276 -999 218 12.9 101610 90
2006-05-16 08:47:28 51°14.413 2°49.281 -999 213 12.9 101610 91
2006-05-16 08:47:33 51°14.415 2°49.286 -999 208 12.9 101610 91
2006-05-16 08:47:39 51°14.419 2°49.292 -999 216 12.8 101610 90
2006-05-16 08:47:44 51°14.421 2°49.297 -999 226 12.8 101610 90
2006-05-16 08:47:47 51°14.423 2°49.3 -999 224 12.9 101610 90
2006-05-16 08:47:53 51°14.426 2°49.306 -999 223 12.9 101610 90
2006-05-16 08:47:59 51°14.43 2°49.312 -999 221 12.9 101610 90
2006-05-16 08:48:03 51°14.431 2°49.316 -999 219 12.9 101610 90
2006-05-16 08:48:06 51°14.433 2°49.319 -999 209 12.9 101600 91
2006-05-16 08:48:13 51°14.437 2°49.326 -999 213 12.9 101600 91
2006-05-16 08:48:19 51°14.44 2°49.332 -999 212 12.9 101610 91
2006-05-16 08:48:23 51°14.442 2°49.336 -999 218 12.9 101610 91
2006-05-16 08:48:29 51°14.445 2°49.342 -999 212 12.9 101610 91
2006-05-16 08:48:33 51°14.447 2°49.346 -999 218 12.9 101610 91
2006-05-16 08:48:39 51°14.451 2°49.352 -999 222 12.9 101610 90
2006-05-16 08:48:43 51°14.453 2°49.356 -999 230 12.9 101610 90
2006-05-16 08:48:47 51°14.454 2°49.36 -999 223 12.9 101610 91
2006-05-16 08:48:53 51°14.458 2°49.366 -999 226 12.9 101610 91
2006-05-16 08:48:59 51°14.461 2°49.372 -999 229 12.9 101610 91
2006-05-16 08:49:03 51°14.463 2°49.377 -999 222 12.9 101610 91
2006-05-16 08:49:09 51°14.466 2°49.382 -999 233 12.9 101610 91
2006-05-16 08:49:13 51°14.468 2°49.386 -999 222 12.9 101610 91
2006-05-16 08:49:18 51°14.471 2°49.391 -999 236 12.9 101610 91
2006-05-16 08:49:23 51°14.473 2°49.397 -999 223 12.9 101610 91
2006-05-16 08:49:28 51°14.476 2°49.402 -999 224 12.9 101610 91
2006-05-16 08:49:33 51°14.478 2°49.407 -999 222 12.9 101610 91
2006-05-16 08:49:38 51°14.481 2°49.412 -999 225 12.9 101610 91
2006-05-16 08:49:43 51°14.483 2°49.417 -999 221 12.9 101610 91
2006-05-16 08:49:48 51°14.486 2°49.422 -999 227 12.9 101610 91
2006-05-16 08:49:53 51°14.488 2°49.427 -999 223 12.9 101610 91
2006-05-16 08:49:59 51°14.492 2°49.433 -999 217 12.9 101610 91
2006-05-16 08:50:04 51°14.494 2°49.438 -999 220 12.9 101610 91
2006-05-16 08:50:08 51°14.496 2°49.442 -999 223 12.9 101610 91
2006-05-16 08:50:13 51°14.498 2°49.447 -999 219 12.9 101610 91
2006-05-16 08:50:19 51°14.502 2°49.453 -999 212 12.9 101610 91
2006-05-16 08:50:24 51°14.504 2°49.458 -999 214 12.9 101610 91
2006-05-16 08:50:28 51°14.506 2°49.462 -999 200 12.9 101610 91
2006-05-16 08:50:33 51°14.509 2°49.467 -999 223 12.9 101610 91
2006-05-16 08:50:39 51°14.512 2°49.473 -999 224 12.9 101610 91
2006-05-16 08:50:44 51°14.514 2°49.479 -999 220 12.9 101610 91
2006-05-16 08:50:49 51°14.517 2°49.484 -999 226 12.9 101610 91
2006-05-16 08:50:53 51°14.519 2°49.488 -999 223 12.9 101610 91
2006-05-16 08:50:59 51°14.522 2°49.494 -999 226 12.9 101610 91
2006-05-16 08:51:04 51°14.525 2°49.499 -999 221 12.9 101610 91
2006-05-16 08:51:09 51°14.527 2°49.504 -999 220 12.9 101610 91
2006-05-16 08:51:13 51°14.529 2°49.508 -999 225 12.9 101610 91
2006-05-16 08:51:19 51°14.533 2°49.514 -999 228 12.9 101610 91
2006-05-16 08:51:23 51°14.534 2°49.518 -999 222 12.9 101610 91
2006-05-16 08:51:29 51°14.538 2°49.524 -999 226 12.9 101610 91
2006-05-16 08:51:33 51°14.54 2°49.528 -999 220 12.9 101610 91
2006-05-16 08:51:37 51°14.542 2°49.532 -999 222 12.9 101610 91
2006-05-16 08:51:43 51°14.545 2°49.538 -999 220 12.9 101610 91
2006-05-16 08:51:49 51°14.548 2°49.544 -999 220 12.9 101610 91
2006-05-16 08:51:53 51°14.55 2°49.548 -999 224 12.9 101610 91
2006-05-16 08:51:57 51°14.552 2°49.552 -999 226 12.9 101610 91
2006-05-16 08:52:03 51°14.555 2°49.558 -999 224 12.9 101610 91
2006-05-16 08:52:09 51°14.558 2°49.564 -999 219 12.9 101610 91
2006-05-16 08:52:13 51°14.56 2°49.568 -999 213 12.9 101610 91
2006-05-16 08:52:19 51°14.564 2°49.574 -999 220 12.9 101610 91
2006-05-16 08:52:23 51°14.566 2°49.578 -999 209 12.9 101610 91
2006-05-16 08:52:28 51°14.568 2°49.584 -999 200 12.9 101610 91
2006-05-16 08:52:33 51°14.571 2°49.589 -999 218 12.9 101610 91
2006-05-16 08:52:37 51°14.573 2°49.592 -999 213 12.9 101610 91
2006-05-16 08:52:43 51°14.576 2°49.599 -999 209 12.9 101610 91
2006-05-16 08:52:49 51°14.579 2°49.605 -999 214 12.9 101610 91
2006-05-16 08:52:53 51°14.581 2°49.609 -999 227 12.9 101610 91
2006-05-16 08:52:59 51°14.584 2°49.614 -999 219 12.9 101610 91
2006-05-16 08:53:04 51°14.586 2°49.62 -999 202 12.9 101610 91
2006-05-16 08:53:08 51°14.589 2°49.623 -999 219 12.9 101610 91
2006-05-16 08:53:13 51°14.591 2°49.629 -999 219 12.9 101610 91
2006-05-16 08:53:18 51°14.594 2°49.633 -999 220 12.9 101610 91
2006-05-16 08:53:23 51°14.597 2°49.638 -999 216 12.9 101610 91
2006-05-16 08:53:29 51°14.6 2°49.644 -999 218 12.9 101610 91
2006-05-16 08:53:33 51°14.602 2°49.648 -999 218 12.9 101610 91
2006-05-16 08:53:39 51°14.606 2°49.653 -999 220 12.9 101610 91
2006-05-16 08:53:43 51°14.608 2°49.657 -999 217 12.9 101610 91
2006-05-16 08:53:48 51°14.611 2°49.661 -999 218 12.8 101610 90
2006-05-16 08:53:54 51°14.614 2°49.667 -999 216 12.8 101610 90
2006-05-16 08:53:57 51°14.616 2°49.669 -999 216 12.8 101610 90
2006-05-16 08:54:03 51°14.62 2°49.675 -999 221 12.8 101610 90
2006-05-16 08:54:09 51°14.623 2°49.68 -999 220 12.8 101610 90
2006-05-16 08:54:13 51°14.626 2°49.683 -999 221 12.8 101610 90
2006-05-16 08:54:18 51°14.629 2°49.688 -999 223 12.8 101610 90
2006-05-16 08:54:24 51°14.633 2°49.693 -999 221 12.8 101610 90
2006-05-16 08:54:28 51°14.635 2°49.696 -999 226 12.8 101610 90
2006-05-16 08:54:33 51°14.638 2°49.701 -999 229 12.8 101610 90
2006-05-16 08:54:39 51°14.643 2°49.706 -999 220 12.8 101610 90
2006-05-16 08:54:43 51°14.645 2°49.709 -999 226 12.8 101610 90
2006-05-16 08:54:48 51°14.648 2°49.713 -999 231 12.8 101610 90
2006-05-16 08:54:53 51°14.652 2°49.718 -999 224 12.8 101610 90
2006-05-16 08:54:59 51°14.655 2°49.723 -999 225 12.8 101610 91
2006-05-16 08:55:03 51°14.658 2°49.726 -999 222 12.8 101610 91
2006-05-16 08:55:08 51°14.661 2°49.73 -999 226 12.8 101610 91
2006-05-16 08:55:13 51°14.664 2°49.735 -999 222 12.8 101610 91
2006-05-16 08:55:19 51°14.668 2°49.74 -999 223 12.8 101610 91
2006-05-16 08:55:23 51°14.67 2°49.743 -999 220 12.8 101610 91
2006-05-16 08:55:29 51°14.674 2°49.748 -999 221 12.8 101610 90
2006-05-16 08:55:34 51°14.677 2°49.752 -999 220 12.8 101610 90
2006-05-16 08:55:39 51°14.681 2°49.756 -999 232 12.8 101610 90
2006-05-16 08:55:44 51°14.684 2°49.761 -999 231 12.8 101610 90
2006-05-16 08:55:49 51°14.687 2°49.765 -999 226 12.8 101610 90
2006-05-16 08:55:53 51°14.689 2°49.768 -999 220 12.8 101610 90
2006-05-16 08:55:59 51°14.693 2°49.773 -999 227 12.8 101610 90
2006-05-16 08:56:03 51°14.696 2°49.777 -999 229 12.8 101610 90
2006-05-16 08:56:08 51°14.699 2°49.781 -999 222 12.8 101610 90
2006-05-16 08:56:13 51°14.702 2°49.785 -999 222 12.8 101610 90
2006-05-16 08:56:18 51°14.705 2°49.789 -999 221 12.8 101610 90
2006-05-16 08:56:24 51°14.709 2°49.794 -999 224 12.8 101610 90
2006-05-16 08:56:28 51°14.712 2°49.797 -999 225 12.8 101610 90
2006-05-16 08:56:33 51°14.715 2°49.801 -999 220 12.8 101610 90
2006-05-16 08:56:39 51°14.719 2°49.806 -999 223 12.8 101610 90
2006-05-16 08:56:44 51°14.722 2°49.81 -999 222 12.8 101610 90
2006-05-16 08:56:49 51°14.725 2°49.814 -999 222 12.8 101610 90
2006-05-16 08:56:53 51°14.728 2°49.818 -999 225 12.8 101610 90
2006-05-16 08:56:56 51°14.73 2°49.821 -999 221 12.8 101610 90
2006-05-16 08:57:04 51°14.734 2°49.827 -999 227 12.8 101610 90
2006-05-16 08:57:08 51°14.737 2°49.831 -999 229 12.8 101620 90
2006-05-16 08:57:14 51°14.741 2°49.836 -999 218 12.8 101620 90
2006-05-16 08:57:19 51°14.744 2°49.84 -999 223 12.8 101620 90
2006-05-16 08:57:24 51°14.747 2°49.845 -999 226 12.8 101620 90
2006-05-16 08:57:28 51°14.749 2°49.848 -999 227 12.8 101610 90
2006-05-16 08:57:33 51°14.753 2°49.852 -999 222 12.8 101610 90
2006-05-16 08:57:39 51°14.756 2°49.857 -999 225 12.8 101610 90
2006-05-16 08:57:44 51°14.759 2°49.862 -999 227 12.8 101610 90
2006-05-16 08:57:49 51°14.762 2°49.866 -999 228 12.8 101610 90
2006-05-16 08:57:54 51°14.765 2°49.87 -999 226 12.8 101610 90
2006-05-16 08:57:58 51°14.768 2°49.874 -999 222 12.8 101610 90
2006-05-16 08:58:04 51°14.771 2°49.879 -999 221 12.8 101610 90
2006-05-16 08:58:09 51°14.774 2°49.883 -999 221 12.8 101610 90
2006-05-16 08:58:13 51°14.777 2°49.887 -999 219 12.8 101610 90
2006-05-16 08:58:19 51°14.781 2°49.892 -999 228 12.8 101610 90
2006-05-16 08:58:23 51°14.783 2°49.896 -999 228 12.8 101610 90
2006-05-16 08:58:29 51°14.787 2°49.9 -999 225 12.8 101610 91
2006-05-16 08:58:33 51°14.789 2°49.904 -999 231 12.8 101610 91
2006-05-16 08:58:39 51°14.793 2°49.909 -999 238 12.8 101610 91
2006-05-16 08:58:43 51°14.795 2°49.913 -999 227 12.8 101610 91
2006-05-16 08:58:49 51°14.799 2°49.918 -999 225 12.8 101610 91
2006-05-16 08:58:54 51°14.802 2°49.923 -999 234 12.8 101610 91
2006-05-16 08:58:59 51°14.805 2°49.927 -999 232 12.8 101610 91
2006-05-16 08:59:03 51°14.808 2°49.931 -999 233 12.8 101610 91
2006-05-16 08:59:08 51°14.811 2°49.935 -999 235 12.8 101610 91
2006-05-16 08:59:14 51°14.814 2°49.941 -999 225 12.8 101610 91
2006-05-16 08:59:19 51°14.818 2°49.945 -999 234 12.8 101610 91
2006-05-16 08:59:23 51°14.82 2°49.949 -999 230 12.8 101610 91
2006-05-16 08:59:28 51°14.824 2°49.953 -999 230 12.9 101610 91
2006-05-16 08:59:33 51°14.827 2°49.958 -999 229 12.9 101610 91
2006-05-16 08:59:39 51°14.831 2°49.963 -999 226 12.9 101610 91
2006-05-16 08:59:43 51°14.833 2°49.967 -999 231 12.9 101610 91
2006-05-16 08:59:48 51°14.836 2°49.971 -999 232 12.9 101610 91
2006-05-16 08:59:53 51°14.839 2°49.976 -999 231 12.9 101610 91
2006-05-16 08:59:59 51°14.842 2°49.981 -999 232 12.9 101610 91
2006-05-16 09:00:04 51°14.846 2°49.985 -999 238 12.9 101610 91
2006-05-16 09:00:08 51°14.848 2°49.989 -999 226 12.8 101610 91
2006-05-16 09:00:13 51°14.851 2°49.993 -999 226 12.8 101610 91
2006-05-16 09:00:18 51°14.853 2°49.997 -999 230 12.8 101620 91
2006-05-16 09:00:24 51°14.857 2°50.002 -999 220 12.8 101620 91
2006-05-16 09:00:29 51°14.859 2°50.007 -999 224 12.8 101610 91
2006-05-16 09:00:33 51°14.862 2°50.01 -999 219 12.8 101610 91
2006-05-16 09:00:37 51°14.864 2°50.014 -999 224 12.9 101610 91
2006-05-16 09:00:43 51°14.868 2°50.019 -999 227 12.9 101610 91
2006-05-16 09:00:49 51°14.871 2°50.024 -999 226 12.8 101610 91
2006-05-16 09:00:53 51°14.873 2°50.028 -999 217 12.8 101610 91
2006-05-16 09:00:57 51°14.876 2°50.031 -999 216 12.8 101610 91
2006-05-16 09:01:03 51°14.879 2°50.036 -999 224 12.8 101610 91
2006-05-16 09:01:09 51°14.882 2°50.041 -999 225 12.9 101620 91
2006-05-16 09:01:14 51°14.885 2°50.046 -999 228 12.9 101620 91
2006-05-16 09:01:19 51°14.888 2°50.05 -999 220 12.9 101610 91
2006-05-16 09:01:23 51°14.891 2°50.054 -999 223 12.9 101610 91
2006-05-16 09:01:28 51°14.894 2°50.057 -999 225 12.9 101610 91
2006-05-16 09:01:33 51°14.896 2°50.062 -999 230 12.9 101610 91
2006-05-16 09:01:39 51°14.9 2°50.067 -999 228 12.9 101620 91
2006-05-16 09:01:43 51°14.902 2°50.07 -999 225 12.9 101620 91
2006-05-16 09:01:49 51°14.906 2°50.075 -999 230 12.9 101620 91
2006-05-16 09:01:53 51°14.908 2°50.079 -999 235 12.9 101620 91
2006-05-16 09:01:59 51°14.912 2°50.084 -999 225 12.9 101610 91
2006-05-16 09:02:03 51°14.914 2°50.088 -999 225 12.9 101610 91
2006-05-16 09:02:08 51°14.917 2°50.092 -999 222 12.9 101610 91
2006-05-16 09:02:14 51°14.921 2°50.098 -999 234 12.9 101610 91
2006-05-16 09:02:18 51°14.923 2°50.102 -999 227 12.9 101610 91
2006-05-16 09:02:24 51°14.926 2°50.109 -999 216 12.9 101610 91